La Grange, Wyoming
Current Conditions -  °F | °C
As of 5:53 AM on Thursday 30 Oct 2014 (Local Time) from KTOR Reporting Station
Clear Clear  
Wind Chill: 27°   Ceiling: Unl
Heat Index: 34°   Visibility: 10mi
Dew Point: 24°   Wind: 9mph
Humidity: 67%   Direction: 300°WNW
Pressure: 30.29"   Gusts: NA
Location:  41.64°N, 104.16°W
Report Text: KTOR 301153Z AUTO 30008KT 10SM CLR 01/M04 A3029 RMK AO2 SLP253 T00111044 10067 21006 53015
Loading
Personal Weather Stations






























Interactive Weather Map
Tropical Storm Tracking
New forecast layout! Learn more

10-Day Weather Forecast

Advertisements
Track Severe Weather on mobile